sensor_id;sensor_type;location;lat;lon;timestamp;P1;durP1;ratioP1;P2;durP2;ratioP2
10904;SDS011;5505;51.450;9.254;2022-11-21T00:01:27;18.83;;;12.50;;
10904;SDS011;5505;51.450;9.254;2022-11-21T00:04:14;17.33;;;12.30;;
10904;SDS011;5505;51.450;9.254;2022-11-21T00:07:01;18.80;;;12.50;;
10904;SDS011;5505;51.450;9.254;2022-11-21T00:09:48;17.63;;;12.10;;
10904;SDS011;5505;51.450;9.254;2022-11-21T00:12:35;16.70;;;11.57;;
10904;SDS011;5505;51.450;9.254;2022-11-21T00:15:23;15.57;;;11.03;;
10904;SDS011;5505;51.450;9.254;2022-11-21T00:18:11;17.57;;;11.80;;
10904;SDS011;5505;51.450;9.254;2022-11-21T00:21:02;16.13;;;11.73;;
10904;SDS011;5505;51.450;9.254;2022-11-21T00:23:50;14.10;;;10.63;;
10904;SDS011;5505;51.450;9.254;2022-11-21T00:26:38;15.97;;;10.57;;
10904;SDS011;5505;51.450;9.254;2022-11-21T00:29:24;16.90;;;11.77;;
10904;SDS011;5505;51.450;9.254;2022-11-21T00:32:13;16.03;;;11.87;;
10904;SDS011;5505;51.450;9.254;2022-11-21T00:34:59;15.70;;;11.80;;
10904;SDS011;5505;51.450;9.254;2022-11-21T00:37:46;15.53;;;11.07;;
10904;SDS011;5505;51.450;9.254;2022-11-21T00:40:34;13.93;;;10.50;;
10904;SDS011;5505;51.450;9.254;2022-11-21T00:43:21;12.83;;;9.40;;
10904;SDS011;5505;51.450;9.254;2022-11-21T00:46:08;12.53;;;9.73;;
10904;SDS011;5505;51.450;9.254;2022-11-21T00:48:56;17.90;;;12.17;;
10904;SDS011;5505;51.450;9.254;2022-11-21T00:51:43;26.80;;;17.97;;
10904;SDS011;5505;51.450;9.254;2022-11-21T00:54:30;25.73;;;15.47;;
10904;SDS011;5505;51.450;9.254;2022-11-21T00:57:16;20.73;;;14.40;;
10904;SDS011;5505;51.450;9.254;2022-11-21T01:00:04;48.87;;;27.67;;
10904;SDS011;5505;51.450;9.254;2022-11-21T01:02:51;46.43;;;24.90;;
10904;SDS011;5505;51.450;9.254;2022-11-21T01:05:39;50.47;;;26.10;;
10904;SDS011;5505;51.450;9.254;2022-11-21T01:08:26;23.07;;;14.83;;
10904;SDS011;5505;51.450;9.254;2022-11-21T01:11:14;29.73;;;16.97;;
10904;SDS011;5505;51.450;9.254;2022-11-21T01:14:02;45.67;;;24.83;;
10904;SDS011;5505;51.450;9.254;2022-11-21T01:16:49;34.33;;;18.90;;
10904;SDS011;5505;51.450;9.254;2022-11-21T01:19:36;41.63;;;25.83;;
10904;SDS011;5505;51.450;9.254;2022-11-21T01:22:24;19.27;;;14.40;;
10904;SDS011;5505;51.450;9.254;2022-11-21T01:25:11;14.10;;;11.53;;
10904;SDS011;5505;51.450;9.254;2022-11-21T01:27:58;17.23;;;12.97;;
10904;SDS011;5505;51.450;9.254;2022-11-21T01:30:44;17.90;;;13.97;;
10904;SDS011;5505;51.450;9.254;2022-11-21T01:33:31;18.07;;;14.50;;
10904;SDS011;5505;51.450;9.254;2022-11-21T01:36:19;17.73;;;14.20;;
10904;SDS011;5505;51.450;9.254;2022-11-21T01:39:09;17.90;;;15.37;;
10904;SDS011;5505;51.450;9.254;2022-11-21T01:41:56;20.13;;;14.33;;
10904;SDS011;5505;51.450;9.254;2022-11-21T01:44:44;18.23;;;13.07;;
10904;SDS011;5505;51.450;9.254;2022-11-21T01:47:33;17.50;;;13.50;;
10904;SDS011;5505;51.450;9.254;2022-11-21T01:50:20;18.50;;;13.90;;
10904;SDS011;5505;51.450;9.254;2022-11-21T01:53:07;17.23;;;13.00;;
10904;SDS011;5505;51.450;9.254;2022-11-21T01:55:56;17.70;;;12.73;;
10904;SDS011;5505;51.450;9.254;2022-11-21T01:58:42;16.73;;;12.67;;
10904;SDS011;5505;51.450;9.254;2022-11-21T02:01:32;17.60;;;13.13;;
10904;SDS011;5505;51.450;9.254;2022-11-21T02:04:21;17.73;;;12.67;;
10904;SDS011;5505;51.450;9.254;2022-11-21T02:07:12;18.40;;;13.47;;
10904;SDS011;5505;51.450;9.254;2022-11-21T02:10:01;18.90;;;13.57;;
10904;SDS011;5505;51.450;9.254;2022-11-21T02:12:51;19.10;;;13.80;;
10904;SDS011;5505;51.450;9.254;2022-11-21T02:15:38;24.87;;;17.47;;
10904;SDS011;5505;51.450;9.254;2022-11-21T02:18:25;18.90;;;14.07;;
10904;SDS011;5505;51.450;9.254;2022-11-21T02:21:13;19.13;;;13.57;;
10904;SDS011;5505;51.450;9.254;2022-11-21T02:24:08;15.87;;;12.37;;
10904;SDS011;5505;51.450;9.254;2022-11-21T02:27:02;16.83;;;12.90;;
10904;SDS011;5505;51.450;9.254;2022-11-21T02:29:49;17.00;;;12.53;;
10904;SDS011;5505;51.450;9.254;2022-11-21T02:32:37;14.43;;;12.07;;
10904;SDS011;5505;51.450;9.254;2022-11-21T02:35:25;17.90;;;13.00;;
10904;SDS011;5505;51.450;9.254;2022-11-21T02:38:13;17.27;;;12.63;;
10904;SDS011;5505;51.450;9.254;2022-11-21T02:41:06;15.63;;;11.83;;
10904;SDS011;5505;51.450;9.254;2022-11-21T02:44:01;15.13;;;12.23;;
10904;SDS011;5505;51.450;9.254;2022-11-21T02:46:51;14.67;;;11.50;;
10904;SDS011;5505;51.450;9.254;2022-11-21T02:49:39;14.97;;;11.90;;
10904;SDS011;5505;51.450;9.254;2022-11-21T02:52:33;14.83;;;11.10;;
10904;SDS011;5505;51.450;9.254;2022-11-21T02:55:20;15.17;;;11.27;;
10904;SDS011;5505;51.450;9.254;2022-11-21T02:58:08;16.13;;;11.33;;
10904;SDS011;5505;51.450;9.254;2022-11-21T03:00:56;14.73;;;11.07;;
10904;SDS011;5505;51.450;9.254;2022-11-21T03:03:43;13.47;;;10.67;;
10904;SDS011;5505;51.450;9.254;2022-11-21T03:06:30;14.67;;;11.53;;
10904;SDS011;5505;51.450;9.254;2022-11-21T03:09:16;13.63;;;11.33;;
10904;SDS011;5505;51.450;9.254;2022-11-21T03:12:06;12.83;;;10.30;;
10904;SDS011;5505;51.450;9.254;2022-11-21T03:14:54;12.40;;;10.63;;
10904;SDS011;5505;51.450;9.254;2022-11-21T03:17:42;10.93;;;9.53;;
10904;SDS011;5505;51.450;9.254;2022-11-21T03:20:29;11.23;;;9.60;;
10904;SDS011;5505;51.450;9.254;2022-11-21T03:23:16;12.27;;;9.77;;
10904;SDS011;5505;51.450;9.254;2022-11-21T03:26:03;12.00;;;9.23;;
10904;SDS011;5505;51.450;9.254;2022-11-21T03:28:50;11.70;;;9.00;;
10904;SDS011;5505;51.450;9.254;2022-11-21T03:31:36;12.17;;;9.73;;
10904;SDS011;5505;51.450;9.254;2022-11-21T03:34:24;10.67;;;9.00;;
10904;SDS011;5505;51.450;9.254;2022-11-21T03:37:11;11.87;;;9.40;;
10904;SDS011;5505;51.450;9.254;2022-11-21T03:39:58;12.20;;;10.07;;
10904;SDS011;5505;51.450;9.254;2022-11-21T03:42:45;9.73;;;8.70;;
10904;SDS011;5505;51.450;9.254;2022-11-21T03:45:31;11.57;;;9.07;;
10904;SDS011;5505;51.450;9.254;2022-11-21T03:48:18;12.93;;;9.20;;
10904;SDS011;5505;51.450;9.254;2022-11-21T03:51:07;11.07;;;9.13;;
10904;SDS011;5505;51.450;9.254;2022-11-21T03:53:53;11.73;;;9.47;;
10904;SDS011;5505;51.450;9.254;2022-11-21T03:56:40;11.37;;;8.83;;
10904;SDS011;5505;51.450;9.254;2022-11-21T03:59:27;10.80;;;8.73;;
10904;SDS011;5505;51.450;9.254;2022-11-21T04:02:14;9.67;;;8.27;;
10904;SDS011;5505;51.450;9.254;2022-11-21T04:05:00;11.03;;;8.60;;
10904;SDS011;5505;51.450;9.254;2022-11-21T04:07:48;9.77;;;8.57;;
10904;SDS011;5505;51.450;9.254;2022-11-21T04:10:36;9.73;;;8.17;;
10904;SDS011;5505;51.450;9.254;2022-11-21T04:13:23;10.07;;;8.53;;
10904;SDS011;5505;51.450;9.254;2022-11-21T04:16:10;11.03;;;9.27;;
10904;SDS011;5505;51.450;9.254;2022-11-21T04:18:56;10.80;;;9.00;;
10904;SDS011;5505;51.450;9.254;2022-11-21T04:21:43;11.50;;;9.20;;
10904;SDS011;5505;51.450;9.254;2022-11-21T04:24:31;11.80;;;9.77;;
10904;SDS011;5505;51.450;9.254;2022-11-21T04:27:18;10.43;;;9.17;;
10904;SDS011;5505;51.450;9.254;2022-11-21T04:30:05;10.80;;;9.10;;
10904;SDS011;5505;51.450;9.254;2022-11-21T04:32:53;11.10;;;9.33;;
10904;SDS011;5505;51.450;9.254;2022-11-21T04:35:41;10.53;;;9.23;;
10904;SDS011;5505;51.450;9.254;2022-11-21T04:38:28;10.17;;;8.47;;
10904;SDS011;5505;51.450;9.254;2022-11-21T04:41:16;10.57;;;8.97;;
10904;SDS011;5505;51.450;9.254;2022-11-21T04:44:03;9.70;;;8.67;;
10904;SDS011;5505;51.450;9.254;2022-11-21T04:46:50;10.27;;;8.73;;
10904;SDS011;5505;51.450;9.254;2022-11-21T04:49:37;11.13;;;8.83;;
10904;SDS011;5505;51.450;9.254;2022-11-21T04:52:24;10.53;;;9.10;;
10904;SDS011;5505;51.450;9.254;2022-11-21T04:55:10;10.97;;;9.00;;
10904;SDS011;5505;51.450;9.254;2022-11-21T04:57:59;10.40;;;8.37;;
10904;SDS011;5505;51.450;9.254;2022-11-21T05:00:45;11.03;;;8.53;;
10904;SDS011;5505;51.450;9.254;2022-11-21T05:03:32;11.97;;;8.50;;
10904;SDS011;5505;51.450;9.254;2022-11-21T05:06:19;10.03;;;7.87;;
10904;SDS011;5505;51.450;9.254;2022-11-21T05:09:06;11.10;;;8.73;;
10904;SDS011;5505;51.450;9.254;2022-11-21T05:11:53;10.97;;;9.43;;
10904;SDS011;5505;51.450;9.254;2022-11-21T05:14:58;22.67;;;14.53;;
10904;SDS011;5505;51.450;9.254;2022-11-21T05:17:45;9.93;;;8.30;;
10904;SDS011;5505;51.450;9.254;2022-11-21T05:20:32;11.00;;;7.93;;
10904;SDS011;5505;51.450;9.254;2022-11-21T05:23:18;26.43;;;14.70;;
10904;SDS011;5505;51.450;9.254;2022-11-21T05:26:05;11.93;;;9.93;;
10904;SDS011;5505;51.450;9.254;2022-11-21T05:28:52;9.23;;;8.30;;
10904;SDS011;5505;51.450;9.254;2022-11-21T05:31:40;10.73;;;8.93;;
10904;SDS011;5505;51.450;9.254;2022-11-21T05:34:27;11.73;;;7.70;;
10904;SDS011;5505;51.450;9.254;2022-11-21T05:37:14;9.77;;;7.83;;
10904;SDS011;5505;51.450;9.254;2022-11-21T05:40:00;9.57;;;7.77;;
10904;SDS011;5505;51.450;9.254;2022-11-21T05:42:47;9.23;;;8.20;;
10904;SDS011;5505;51.450;9.254;2022-11-21T05:45:51;9.43;;;7.37;;
10904;SDS011;5505;51.450;9.254;2022-11-21T05:48:40;10.70;;;7.70;;
10904;SDS011;5505;51.450;9.254;2022-11-21T05:51:26;8.07;;;6.97;;
10904;SDS011;5505;51.450;9.254;2022-11-21T05:54:13;17.10;;;10.03;;
10904;SDS011;5505;51.450;9.254;2022-11-21T05:57:00;16.17;;;11.67;;
10904;SDS011;5505;51.450;9.254;2022-11-21T05:59:47;12.77;;;9.83;;
10904;SDS011;5505;51.450;9.254;2022-11-21T06:02:33;18.83;;;15.67;;
10904;SDS011;5505;51.450;9.254;2022-11-21T06:05:39;13.10;;;10.67;;
10904;SDS011;5505;51.450;9.254;2022-11-21T06:08:26;10.73;;;8.67;;
10904;SDS011;5505;51.450;9.254;2022-11-21T06:11:14;12.23;;;9.50;;
10904;SDS011;5505;51.450;9.254;2022-11-21T06:14:01;10.80;;;8.00;;
10904;SDS011;5505;51.450;9.254;2022-11-21T06:16:49;11.43;;;8.27;;
10904;SDS011;5505;51.450;9.254;2022-11-21T06:19:35;23.03;;;17.77;;
10904;SDS011;5505;51.450;9.254;2022-11-21T06:22:23;12.43;;;9.93;;
10904;SDS011;5505;51.450;9.254;2022-11-21T06:25:10;9.03;;;8.13;;
10904;SDS011;5505;51.450;9.254;2022-11-21T06:27:58;9.70;;;8.17;;
10904;SDS011;5505;51.450;9.254;2022-11-21T06:30:44;8.07;;;7.23;;
10904;SDS011;5505;51.450;9.254;2022-11-21T06:33:35;9.63;;;7.60;;
10904;SDS011;5505;51.450;9.254;2022-11-21T06:36:23;8.60;;;7.57;;
10904;SDS011;5505;51.450;9.254;2022-11-21T06:39:11;9.23;;;7.73;;
10904;SDS011;5505;51.450;9.254;2022-11-21T06:41:58;12.30;;;8.70;;
10904;SDS011;5505;51.450;9.254;2022-11-21T06:44:46;14.53;;;10.10;;
10904;SDS011;5505;51.450;9.254;2022-11-21T06:47:33;12.17;;;8.70;;
10904;SDS011;5505;51.450;9.254;2022-11-21T06:50:19;15.43;;;10.40;;
10904;SDS011;5505;51.450;9.254;2022-11-21T06:53:06;12.57;;;8.90;;
10904;SDS011;5505;51.450;9.254;2022-11-21T06:55:56;12.43;;;9.87;;
10904;SDS011;5505;51.450;9.254;2022-11-21T06:58:43;11.87;;;8.70;;
10904;SDS011;5505;51.450;9.254;2022-11-21T07:01:30;11.23;;;9.07;;
10904;SDS011;5505;51.450;9.254;2022-11-21T07:04:17;9.90;;;8.30;;
10904;SDS011;5505;51.450;9.254;2022-11-21T07:07:04;14.33;;;10.30;;
10904;SDS011;5505;51.450;9.254;2022-11-21T07:09:50;11.20;;;9.23;;
10904;SDS011;5505;51.450;9.254;2022-11-21T07:12:39;9.40;;;7.53;;
10904;SDS011;5505;51.450;9.254;2022-11-21T07:15:43;7.60;;;6.80;;
10904;SDS011;5505;51.450;9.254;2022-11-21T07:18:31;7.90;;;6.77;;
10904;SDS011;5505;51.450;9.254;2022-11-21T07:21:18;9.33;;;7.67;;
10904;SDS011;5505;51.450;9.254;2022-11-21T07:24:05;8.73;;;7.13;;
10904;SDS011;5505;51.450;9.254;2022-11-21T07:26:51;11.17;;;8.30;;
10904;SDS011;5505;51.450;9.254;2022-11-21T07:29:40;11.50;;;9.20;;
10904;SDS011;5505;51.450;9.254;2022-11-21T07:32:26;11.70;;;9.33;;
10904;SDS011;5505;51.450;9.254;2022-11-21T07:35:13;11.93;;;9.27;;
10904;SDS011;5505;51.450;9.254;2022-11-21T07:38:00;13.10;;;10.13;;
10904;SDS011;5505;51.450;9.254;2022-11-21T07:40:48;10.63;;;9.37;;
10904;SDS011;5505;51.450;9.254;2022-11-21T07:43:35;13.60;;;10.43;;
10904;SDS011;5505;51.450;9.254;2022-11-21T07:46:23;16.70;;;12.30;;
10904;SDS011;5505;51.450;9.254;2022-11-21T07:49:10;16.80;;;10.97;;
10904;SDS011;5505;51.450;9.254;2022-11-21T07:51:57;12.77;;;10.10;;
10904;SDS011;5505;51.450;9.254;2022-11-21T07:54:44;16.00;;;11.83;;
10904;SDS011;5505;51.450;9.254;2022-11-21T07:57:31;22.07;;;13.17;;
10904;SDS011;5505;51.450;9.254;2022-11-21T08:00:18;21.57;;;15.40;;
10904;SDS011;5505;51.450;9.254;2022-11-21T08:03:06;15.97;;;11.30;;
10904;SDS011;5505;51.450;9.254;2022-11-21T08:05:53;14.57;;;9.67;;
10904;SDS011;5505;51.450;9.254;2022-11-21T08:08:40;15.00;;;10.00;;
10904;SDS011;5505;51.450;9.254;2022-11-21T08:11:27;12.67;;;10.27;;
10904;SDS011;5505;51.450;9.254;2022-11-21T08:14:15;13.97;;;10.70;;
10904;SDS011;5505;51.450;9.254;2022-11-21T08:17:02;15.40;;;10.77;;
10904;SDS011;5505;51.450;9.254;2022-11-21T08:19:50;13.70;;;11.37;;
10904;SDS011;5505;51.450;9.254;2022-11-21T08:22:37;13.67;;;10.57;;
10904;SDS011;5505;51.450;9.254;2022-11-21T08:25:24;16.13;;;12.97;;
10904;SDS011;5505;51.450;9.254;2022-11-21T08:28:11;15.13;;;11.57;;
10904;SDS011;5505;51.450;9.254;2022-11-21T08:30:58;13.47;;;10.93;;
10904;SDS011;5505;51.450;9.254;2022-11-21T08:33:48;14.20;;;11.57;;
10904;SDS011;5505;51.450;9.254;2022-11-21T08:36:36;13.30;;;11.37;;
10904;SDS011;5505;51.450;9.254;2022-11-21T08:39:24;14.10;;;10.77;;
10904;SDS011;5505;51.450;9.254;2022-11-21T08:42:12;13.30;;;10.77;;
10904;SDS011;5505;51.450;9.254;2022-11-21T08:44:58;12.57;;;10.53;;
10904;SDS011;5505;51.450;9.254;2022-11-21T08:47:45;12.33;;;10.53;;
10904;SDS011;5505;51.450;9.254;2022-11-21T08:50:32;13.57;;;10.50;;
10904;SDS011;5505;51.450;9.254;2022-11-21T08:53:20;13.83;;;10.03;;
10904;SDS011;5505;51.450;9.254;2022-11-21T08:56:07;12.07;;;10.00;;
10904;SDS011;5505;51.450;9.254;2022-11-21T08:58:54;11.07;;;9.63;;
10904;SDS011;5505;51.450;9.254;2022-11-21T09:01:41;14.93;;;10.43;;
10904;SDS011;5505;51.450;9.254;2022-11-21T09:04:28;14.70;;;10.50;;
10904;SDS011;5505;51.450;9.254;2022-11-21T09:07:14;12.50;;;10.00;;
10904;SDS011;5505;51.450;9.254;2022-11-21T09:10:03;14.10;;;10.43;;
10904;SDS011;5505;51.450;9.254;2022-11-21T09:12:50;11.70;;;9.77;;
10904;SDS011;5505;51.450;9.254;2022-11-21T09:15:37;11.80;;;10.20;;
10904;SDS011;5505;51.450;9.254;2022-11-21T09:18:42;13.33;;;10.13;;
10904;SDS011;5505;51.450;9.254;2022-11-21T09:21:28;15.40;;;11.43;;
10904;SDS011;5505;51.450;9.254;2022-11-21T09:24:15;14.07;;;10.50;;
10904;SDS011;5505;51.450;9.254;2022-11-21T09:27:03;13.97;;;11.03;;
10904;SDS011;5505;51.450;9.254;2022-11-21T09:29:50;15.17;;;11.13;;
10904;SDS011;5505;51.450;9.254;2022-11-21T09:32:37;15.17;;;11.80;;
10904;SDS011;5505;51.450;9.254;2022-11-21T09:35:24;14.13;;;10.80;;
10904;SDS011;5505;51.450;9.254;2022-11-21T09:38:11;14.00;;;11.07;;
10904;SDS011;5505;51.450;9.254;2022-11-21T09:40:59;15.70;;;11.20;;
10904;SDS011;5505;51.450;9.254;2022-11-21T09:44:25;13.90;;;11.40;;
10904;SDS011;5505;51.450;9.254;2022-11-21T09:47:34;14.73;;;11.90;;
10904;SDS011;5505;51.450;9.254;2022-11-21T09:50:24;16.37;;;12.33;;
10904;SDS011;5505;51.450;9.254;2022-11-21T09:53:16;18.10;;;14.43;;
10904;SDS011;5505;51.450;9.254;2022-11-21T09:56:10;19.60;;;14.67;;
10904;SDS011;5505;51.450;9.254;2022-11-21T09:59:05;19.50;;;14.80;;
10904;SDS011;5505;51.450;9.254;2022-11-21T10:01:59;18.53;;;14.70;;
10904;SDS011;5505;51.450;9.254;2022-11-21T10:04:46;21.47;;;14.97;;
10904;SDS011;5505;51.450;9.254;2022-11-21T10:07:34;21.00;;;15.17;;
10904;SDS011;5505;51.450;9.254;2022-11-21T10:10:28;20.37;;;15.17;;
10904;SDS011;5505;51.450;9.254;2022-11-21T10:13:30;19.57;;;14.57;;
10904;SDS011;5505;51.450;9.254;2022-11-21T10:16:26;20.17;;;15.10;;
10904;SDS011;5505;51.450;9.254;2022-11-21T10:19:35;18.30;;;13.90;;
10904;SDS011;5505;51.450;9.254;2022-11-21T10:22:40;19.30;;;14.67;;
10904;SDS011;5505;51.450;9.254;2022-11-21T10:25:45;20.10;;;14.57;;
10904;SDS011;5505;51.450;9.254;2022-11-21T10:28:39;19.23;;;14.60;;
10904;SDS011;5505;51.450;9.254;2022-11-21T10:31:34;19.17;;;14.30;;
10904;SDS011;5505;51.450;9.254;2022-11-21T10:34:24;21.53;;;14.67;;
10904;SDS011;5505;51.450;9.254;2022-11-21T10:37:18;19.53;;;14.10;;
10904;SDS011;5505;51.450;9.254;2022-11-21T10:43:30;20.33;;;14.50;;
10904;SDS011;5505;51.450;9.254;2022-11-21T10:46:52;20.27;;;14.33;;
10904;SDS011;5505;51.450;9.254;2022-11-21T10:49:39;20.70;;;15.03;;
10904;SDS011;5505;51.450;9.254;2022-11-21T10:52:31;21.40;;;13.73;;
10904;SDS011;5505;51.450;9.254;2022-11-21T10:55:20;18.80;;;13.83;;
10904;SDS011;5505;51.450;9.254;2022-11-21T10:58:15;18.07;;;13.53;;
10904;SDS011;5505;51.450;9.254;2022-11-21T11:01:03;19.07;;;14.30;;
10904;SDS011;5505;51.450;9.254;2022-11-21T11:04:06;20.13;;;14.60;;
10904;SDS011;5505;51.450;9.254;2022-11-21T11:07:12;17.57;;;13.63;;
10904;SDS011;5505;51.450;9.254;2022-11-21T11:10:14;20.53;;;14.67;;
10904;SDS011;5505;51.450;9.254;2022-11-21T11:13:13;18.53;;;14.30;;
10904;SDS011;5505;51.450;9.254;2022-11-21T11:16:20;19.50;;;14.43;;
10904;SDS011;5505;51.450;9.254;2022-11-21T11:19:15;22.43;;;15.10;;
10904;SDS011;5505;51.450;9.254;2022-11-21T11:22:06;21.53;;;15.57;;
10904;SDS011;5505;51.450;9.254;2022-11-21T11:25:14;20.77;;;14.57;;
10904;SDS011;5505;51.450;9.254;2022-11-21T11:28:01;22.17;;;15.73;;
10904;SDS011;5505;51.450;9.254;2022-11-21T11:30:53;20.87;;;15.07;;
10904;SDS011;5505;51.450;9.254;2022-11-21T11:33:42;19.70;;;14.53;;
10904;SDS011;5505;51.450;9.254;2022-11-21T11:36:36;23.63;;;16.17;;
10904;SDS011;5505;51.450;9.254;2022-11-21T11:39:39;22.60;;;16.47;;
10904;SDS011;5505;51.450;9.254;2022-11-21T11:42:46;23.10;;;15.97;;
10904;SDS011;5505;51.450;9.254;2022-11-21T11:46:27;22.27;;;14.90;;
10904;SDS011;5505;51.450;9.254;2022-11-21T11:49:41;20.67;;;14.90;;
10904;SDS011;5505;51.450;9.254;2022-11-21T11:52:59;21.03;;;15.60;;
10904;SDS011;5505;51.450;9.254;2022-11-21T11:55:51;25.17;;;17.40;;
10904;SDS011;5505;51.450;9.254;2022-11-21T11:58:42;27.33;;;17.53;;
10904;SDS011;5505;51.450;9.254;2022-11-21T12:01:34;23.80;;;17.03;;
10904;SDS011;5505;51.450;9.254;2022-11-21T12:04:24;24.57;;;17.30;;
10904;SDS011;5505;51.450;9.254;2022-11-21T12:07:18;27.50;;;17.87;;
10904;SDS011;5505;51.450;9.254;2022-11-21T12:10:10;23.43;;;17.97;;
10904;SDS011;5505;51.450;9.254;2022-11-21T12:13:03;29.60;;;19.57;;
10904;SDS011;5505;51.450;9.254;2022-11-21T12:15:57;28.43;;;18.90;;
10904;SDS011;5505;51.450;9.254;2022-11-21T12:18:50;24.63;;;17.23;;
10904;SDS011;5505;51.450;9.254;2022-11-21T12:21:41;26.23;;;18.13;;
10904;SDS011;5505;51.450;9.254;2022-11-21T12:24:27;25.73;;;18.60;;
10904;SDS011;5505;51.450;9.254;2022-11-21T12:27:19;25.87;;;18.80;;
10904;SDS011;5505;51.450;9.254;2022-11-21T12:30:24;25.87;;;18.20;;
10904;SDS011;5505;51.450;9.254;2022-11-21T12:33:26;24.67;;;18.40;;
10904;SDS011;5505;51.450;9.254;2022-11-21T12:36:26;25.50;;;17.70;;
10904;SDS011;5505;51.450;9.254;2022-11-21T12:39:32;25.73;;;18.00;;
10904;SDS011;5505;51.450;9.254;2022-11-21T12:42:38;26.83;;;18.20;;
10904;SDS011;5505;51.450;9.254;2022-11-21T12:45:35;24.20;;;17.83;;
10904;SDS011;5505;51.450;9.254;2022-11-21T12:48:39;24.23;;;17.77;;
10904;SDS011;5505;51.450;9.254;2022-11-21T12:51:56;25.83;;;17.63;;
10904;SDS011;5505;51.450;9.254;2022-11-21T12:55:12;27.17;;;17.70;;
10904;SDS011;5505;51.450;9.254;2022-11-21T12:58:07;26.23;;;19.37;;
10904;SDS011;5505;51.450;9.254;2022-11-21T13:01:03;23.40;;;17.37;;
10904;SDS011;5505;51.450;9.254;2022-11-21T13:04:02;23.80;;;17.10;;
10904;SDS011;5505;51.450;9.254;2022-11-21T13:06:51;23.90;;;17.87;;
10904;SDS011;5505;51.450;9.254;2022-11-21T13:09:42;23.40;;;17.23;;
10904;SDS011;5505;51.450;9.254;2022-11-21T13:12:36;22.97;;;17.13;;
10904;SDS011;5505;51.450;9.254;2022-11-21T13:15:26;25.17;;;17.90;;
10904;SDS011;5505;51.450;9.254;2022-11-21T13:18:19;23.77;;;15.97;;
10904;SDS011;5505;51.450;9.254;2022-11-21T13:21:12;23.27;;;17.70;;
10904;SDS011;5505;51.450;9.254;2022-11-21T13:24:54;22.77;;;17.40;;
10904;SDS011;5505;51.450;9.254;2022-11-21T13:27:42;22.63;;;16.37;;
10904;SDS011;5505;51.450;9.254;2022-11-21T13:30:29;24.00;;;17.93;;
10904;SDS011;5505;51.450;9.254;2022-11-21T13:36:35;23.23;;;16.53;;
10904;SDS011;5505;51.450;9.254;2022-11-21T13:39:27;21.63;;;16.73;;
10904;SDS011;5505;51.450;9.254;2022-11-21T13:42:17;24.50;;;17.67;;
10904;SDS011;5505;51.450;9.254;2022-11-21T13:45:37;23.93;;;16.87;;
10904;SDS011;5505;51.450;9.254;2022-11-21T13:48:40;24.10;;;17.03;;
10904;SDS011;5505;51.450;9.254;2022-11-21T13:51:46;24.03;;;16.03;;
10904;SDS011;5505;51.450;9.254;2022-11-21T13:54:53;21.07;;;15.73;;
10904;SDS011;5505;51.450;9.254;2022-11-21T13:58:03;22.17;;;16.13;;
10904;SDS011;5505;51.450;9.254;2022-11-21T14:01:04;21.70;;;15.77;;
10904;SDS011;5505;51.450;9.254;2022-11-21T14:04:02;21.63;;;16.53;;
10904;SDS011;5505;51.450;9.254;2022-11-21T14:07:15;19.57;;;15.20;;
10904;SDS011;5505;51.450;9.254;2022-11-21T14:10:16;22.43;;;16.00;;
10904;SDS011;5505;51.450;9.254;2022-11-21T14:13:18;20.00;;;14.63;;
10904;SDS011;5505;51.450;9.254;2022-11-21T14:16:13;21.80;;;14.83;;
10904;SDS011;5505;51.450;9.254;2022-11-21T14:19:10;21.93;;;15.80;;
10904;SDS011;5505;51.450;9.254;2022-11-21T14:21:59;20.67;;;15.70;;
10904;SDS011;5505;51.450;9.254;2022-11-21T14:24:46;20.13;;;15.47;;
10904;SDS011;5505;51.450;9.254;2022-11-21T14:27:34;20.17;;;14.53;;
10904;SDS011;5505;51.450;9.254;2022-11-21T14:30:31;16.67;;;13.93;;
10904;SDS011;5505;51.450;9.254;2022-11-21T14:36:19;21.90;;;15.07;;
10904;SDS011;5505;51.450;9.254;2022-11-21T14:39:07;17.53;;;13.47;;
10904;SDS011;5505;51.450;9.254;2022-11-21T14:41:55;17.93;;;14.47;;
10904;SDS011;5505;51.450;9.254;2022-11-21T14:44:43;17.70;;;13.90;;
10904;SDS011;5505;51.450;9.254;2022-11-21T14:47:32;19.83;;;15.07;;
10904;SDS011;5505;51.450;9.254;2022-11-21T14:50:26;18.70;;;13.60;;
10904;SDS011;5505;51.450;9.254;2022-11-21T14:53:13;19.00;;;14.03;;
10904;SDS011;5505;51.450;9.254;2022-11-21T14:56:00;22.83;;;15.03;;
10904;SDS011;5505;51.450;9.254;2022-11-21T14:58:47;17.23;;;13.60;;
10904;SDS011;5505;51.450;9.254;2022-11-21T15:01:36;18.70;;;14.40;;
10904;SDS011;5505;51.450;9.254;2022-11-21T15:04:28;19.43;;;14.73;;
10904;SDS011;5505;51.450;9.254;2022-11-21T15:07:17;19.37;;;15.13;;
10904;SDS011;5505;51.450;9.254;2022-11-21T15:10:06;19.20;;;14.17;;
10904;SDS011;5505;51.450;9.254;2022-11-21T15:12:58;18.33;;;13.83;;
10904;SDS011;5505;51.450;9.254;2022-11-21T15:15:48;18.93;;;13.77;;
10904;SDS011;5505;51.450;9.254;2022-11-21T15:18:38;20.50;;;14.97;;
10904;SDS011;5505;51.450;9.254;2022-11-21T15:21:28;18.43;;;13.87;;
10904;SDS011;5505;51.450;9.254;2022-11-21T15:24:16;18.83;;;13.53;;
10904;SDS011;5505;51.450;9.254;2022-11-21T15:30:25;19.87;;;14.27;;
10904;SDS011;5505;51.450;9.254;2022-11-21T15:33:13;20.07;;;13.53;;
10904;SDS011;5505;51.450;9.254;2022-11-21T15:36:10;17.23;;;13.33;;
10904;SDS011;5505;51.450;9.254;2022-11-21T15:39:01;17.93;;;13.77;;
10904;SDS011;5505;51.450;9.254;2022-11-21T15:41:49;21.73;;;14.73;;
10904;SDS011;5505;51.450;9.254;2022-11-21T15:44:36;25.50;;;16.13;;
10904;SDS011;5505;51.450;9.254;2022-11-21T15:47:23;22.13;;;14.70;;
10904;SDS011;5505;51.450;9.254;2022-11-21T15:50:10;25.63;;;17.13;;
10904;SDS011;5505;51.450;9.254;2022-11-21T15:52:56;19.60;;;14.93;;
10904;SDS011;5505;51.450;9.254;2022-11-21T15:55:44;23.77;;;15.03;;
10904;SDS011;5505;51.450;9.254;2022-11-21T15:58:31;21.17;;;15.63;;
10904;SDS011;5505;51.450;9.254;2022-11-21T16:01:19;24.53;;;16.63;;
10904;SDS011;5505;51.450;9.254;2022-11-21T16:04:07;25.70;;;16.50;;
10904;SDS011;5505;51.450;9.254;2022-11-21T16:06:58;24.23;;;15.13;;
10904;SDS011;5505;51.450;9.254;2022-11-21T16:09:44;26.10;;;15.67;;
10904;SDS011;5505;51.450;9.254;2022-11-21T16:12:33;21.30;;;14.70;;
10904;SDS011;5505;51.450;9.254;2022-11-21T16:15:20;20.37;;;15.67;;
10904;SDS011;5505;51.450;9.254;2022-11-21T16:18:07;21.10;;;14.60;;
10904;SDS011;5505;51.450;9.254;2022-11-21T16:21:02;25.00;;;15.87;;
10904;SDS011;5505;51.450;9.254;2022-11-21T16:23:50;22.37;;;15.00;;
10904;SDS011;5505;51.450;9.254;2022-11-21T16:26:37;25.47;;;14.93;;
10904;SDS011;5505;51.450;9.254;2022-11-21T16:29:26;22.67;;;14.87;;
10904;SDS011;5505;51.450;9.254;2022-11-21T16:32:12;23.97;;;14.90;;
10904;SDS011;5505;51.450;9.254;2022-11-21T16:34:59;21.47;;;15.53;;
10904;SDS011;5505;51.450;9.254;2022-11-21T16:37:46;23.10;;;15.37;;
10904;SDS011;5505;51.450;9.254;2022-11-21T16:40:33;22.67;;;15.50;;
10904;SDS011;5505;51.450;9.254;2022-11-21T16:43:20;26.80;;;15.70;;
10904;SDS011;5505;51.450;9.254;2022-11-21T16:46:08;23.90;;;15.40;;
10904;SDS011;5505;51.450;9.254;2022-11-21T16:48:59;23.53;;;15.10;;
10904;SDS011;5505;51.450;9.254;2022-11-21T16:51:48;22.10;;;15.70;;
10904;SDS011;5505;51.450;9.254;2022-11-21T16:54:34;19.20;;;13.50;;
10904;SDS011;5505;51.450;9.254;2022-11-21T16:57:31;24.77;;;14.03;;
10904;SDS011;5505;51.450;9.254;2022-11-21T17:00:20;21.93;;;16.10;;
10904;SDS011;5505;51.450;9.254;2022-11-21T17:03:09;23.57;;;16.00;;
10904;SDS011;5505;51.450;9.254;2022-11-21T17:05:56;16.93;;;12.93;;
10904;SDS011;5505;51.450;9.254;2022-11-21T17:08:43;22.77;;;13.47;;
10904;SDS011;5505;51.450;9.254;2022-11-21T17:11:30;19.83;;;14.03;;